sensor_id;sensor_type;location;lat;lon;timestamp;P1;durP1;ratioP1;P2;durP2;ratioP2
80681;SDS011;70045;40.200;44.582;2024-03-06T00:00:35;20.67;;;8.52;;
80681;SDS011;70045;40.200;44.582;2024-03-06T00:03:04;18.40;;;8.02;;
80681;SDS011;70045;40.200;44.582;2024-03-06T00:05:29;22.70;;;8.35;;
80681;SDS011;70045;40.200;44.582;2024-03-06T00:07:55;20.88;;;9.27;;
80681;SDS011;70045;40.200;44.582;2024-03-06T00:10:20;29.40;;;11.00;;
80681;SDS011;70045;40.200;44.582;2024-03-06T00:12:45;28.23;;;9.50;;
80681;SDS011;70045;40.200;44.582;2024-03-06T00:15:15;22.77;;;9.30;;
80681;SDS011;70045;40.200;44.582;2024-03-06T00:17:48;22.58;;;9.68;;
80681;SDS011;70045;40.200;44.582;2024-03-06T00:20:13;18.42;;;9.35;;
80681;SDS011;70045;40.200;44.582;2024-03-06T00:22:39;23.05;;;9.27;;
80681;SDS011;70045;40.200;44.582;2024-03-06T00:25:04;19.35;;;8.52;;
80681;SDS011;70045;40.200;44.582;2024-03-06T00:27:33;19.33;;;7.80;;
80681;SDS011;70045;40.200;44.582;2024-03-06T00:30:00;21.85;;;9.07;;
80681;SDS011;70045;40.200;44.582;2024-03-06T00:32:26;28.45;;;10.02;;
80681;SDS011;70045;40.200;44.582;2024-03-06T00:34:52;21.45;;;8.65;;
80681;SDS011;70045;40.200;44.582;2024-03-06T00:37:17;19.92;;;8.98;;
80681;SDS011;70045;40.200;44.582;2024-03-06T00:39:46;18.75;;;8.88;;
80681;SDS011;70045;40.200;44.582;2024-03-06T00:42:12;23.52;;;9.50;;
80681;SDS011;70045;40.200;44.582;2024-03-06T00:44:37;24.98;;;10.43;;
80681;SDS011;70045;40.200;44.582;2024-03-06T00:47:05;26.95;;;10.68;;
80681;SDS011;70045;40.200;44.582;2024-03-06T00:49:30;28.38;;;10.77;;
80681;SDS011;70045;40.200;44.582;2024-03-06T00:51:59;34.63;;;12.23;;
80681;SDS011;70045;40.200;44.582;2024-03-06T00:54:25;28.73;;;10.43;;
80681;SDS011;70045;40.200;44.582;2024-03-06T00:56:50;28.25;;;12.00;;
80681;SDS011;70045;40.200;44.582;2024-03-06T00:59:16;33.05;;;10.88;;
80681;SDS011;70045;40.200;44.582;2024-03-06T01:01:41;28.20;;;10.77;;
80681;SDS011;70045;40.200;44.582;2024-03-06T01:04:09;31.67;;;10.63;;
80681;SDS011;70045;40.200;44.582;2024-03-06T01:06:35;28.08;;;10.85;;
80681;SDS011;70045;40.200;44.582;2024-03-06T01:09:00;24.92;;;11.23;;
80681;SDS011;70045;40.200;44.582;2024-03-06T01:11:26;22.48;;;9.60;;
80681;SDS011;70045;40.200;44.582;2024-03-06T01:13:51;25.15;;;10.00;;
80681;SDS011;70045;40.200;44.582;2024-03-06T01:16:20;25.25;;;9.85;;
80681;SDS011;70045;40.200;44.582;2024-03-06T01:18:45;21.48;;;10.43;;
80681;SDS011;70045;40.200;44.582;2024-03-06T01:21:11;24.48;;;10.38;;
80681;SDS011;70045;40.200;44.582;2024-03-06T01:23:36;27.85;;;11.25;;
80681;SDS011;70045;40.200;44.582;2024-03-06T01:26:02;24.08;;;9.75;;
80681;SDS011;70045;40.200;44.582;2024-03-06T01:28:33;25.45;;;10.65;;
80681;SDS011;70045;40.200;44.582;2024-03-06T01:30:58;27.52;;;11.52;;
80681;SDS011;70045;40.200;44.582;2024-03-06T01:33:23;28.27;;;12.18;;
80681;SDS011;70045;40.200;44.582;2024-03-06T01:35:51;24.67;;;10.43;;
80681;SDS011;70045;40.200;44.582;2024-03-06T01:38:17;24.38;;;10.05;;
80681;SDS011;70045;40.200;44.582;2024-03-06T01:40:45;25.45;;;10.30;;
80681;SDS011;70045;40.200;44.582;2024-03-06T01:43:20;22.27;;;10.57;;
80681;SDS011;70045;40.200;44.582;2024-03-06T01:45:47;26.02;;;11.50;;
80681;SDS011;70045;40.200;44.582;2024-03-06T01:48:13;27.50;;;11.07;;
80681;SDS011;70045;40.200;44.582;2024-03-06T01:50:40;22.42;;;11.23;;
80681;SDS011;70045;40.200;44.582;2024-03-06T01:53:09;29.30;;;11.02;;
80681;SDS011;70045;40.200;44.582;2024-03-06T01:55:35;36.47;;;14.52;;
80681;SDS011;70045;40.200;44.582;2024-03-06T01:58:01;40.25;;;14.23;;
80681;SDS011;70045;40.200;44.582;2024-03-06T02:00:27;36.50;;;15.98;;
80681;SDS011;70045;40.200;44.582;2024-03-06T02:02:53;39.30;;;15.55;;
80681;SDS011;70045;40.200;44.582;2024-03-06T02:05:23;39.30;;;14.95;;
80681;SDS011;70045;40.200;44.582;2024-03-06T02:07:48;38.00;;;15.50;;
80681;SDS011;70045;40.200;44.582;2024-03-06T02:10:15;43.85;;;15.05;;
80681;SDS011;70045;40.200;44.582;2024-03-06T02:12:41;40.55;;;15.82;;
80681;SDS011;70045;40.200;44.582;2024-03-06T02:15:06;36.83;;;15.55;;
80681;SDS011;70045;40.200;44.582;2024-03-06T02:17:37;34.20;;;15.73;;
80681;SDS011;70045;40.200;44.582;2024-03-06T02:20:03;41.58;;;16.02;;
80681;SDS011;70045;40.200;44.582;2024-03-06T02:22:29;43.47;;;17.17;;
80681;SDS011;70045;40.200;44.582;2024-03-06T02:24:54;35.97;;;15.57;;
80681;SDS011;70045;40.200;44.582;2024-03-06T02:27:19;43.80;;;18.42;;
80681;SDS011;70045;40.200;44.582;2024-03-06T02:29:48;45.15;;;17.85;;
80681;SDS011;70045;40.200;44.582;2024-03-06T02:32:14;39.25;;;16.55;;
80681;SDS011;70045;40.200;44.582;2024-03-06T02:34:39;36.83;;;14.73;;
80681;SDS011;70045;40.200;44.582;2024-03-06T02:37:05;31.13;;;13.75;;
80681;SDS011;70045;40.200;44.582;2024-03-06T02:39:31;35.47;;;13.20;;
80681;SDS011;70045;40.200;44.582;2024-03-06T02:42:00;32.38;;;13.63;;
80681;SDS011;70045;40.200;44.582;2024-03-06T02:44:25;42.20;;;13.70;;
80681;SDS011;70045;40.200;44.582;2024-03-06T02:46:50;32.95;;;13.13;;
80681;SDS011;70045;40.200;44.582;2024-03-06T02:49:16;34.00;;;13.23;;
80681;SDS011;70045;40.200;44.582;2024-03-06T02:51:42;26.38;;;11.57;;
80681;SDS011;70045;40.200;44.582;2024-03-06T02:54:10;25.63;;;11.32;;
80681;SDS011;70045;40.200;44.582;2024-03-06T02:56:39;18.67;;;9.20;;
80681;SDS011;70045;40.200;44.582;2024-03-06T02:59:04;29.23;;;13.30;;
80681;SDS011;70045;40.200;44.582;2024-03-06T03:01:30;27.35;;;11.07;;
80681;SDS011;70045;40.200;44.582;2024-03-06T03:03:56;28.77;;;11.65;;
80681;SDS011;70045;40.200;44.582;2024-03-06T03:06:25;19.13;;;9.35;;
80681;SDS011;70045;40.200;44.582;2024-03-06T03:08:50;14.88;;;8.07;;
80681;SDS011;70045;40.200;44.582;2024-03-06T03:11:16;17.67;;;8.38;;
80681;SDS011;70045;40.200;44.582;2024-03-06T03:13:41;17.10;;;8.43;;
80681;SDS011;70045;40.200;44.582;2024-03-06T03:16:07;21.52;;;10.23;;
80681;SDS011;70045;40.200;44.582;2024-03-06T03:18:36;20.55;;;8.82;;
80681;SDS011;70045;40.200;44.582;2024-03-06T03:21:01;15.13;;;7.93;;
80681;SDS011;70045;40.200;44.582;2024-03-06T03:23:26;17.55;;;9.07;;
80681;SDS011;70045;40.200;44.582;2024-03-06T03:25:52;18.13;;;8.13;;
80681;SDS011;70045;40.200;44.582;2024-03-06T03:28:24;15.57;;;7.82;;
80681;SDS011;70045;40.200;44.582;2024-03-06T03:30:53;15.05;;;8.25;;
80681;SDS011;70045;40.200;44.582;2024-03-06T03:33:18;12.77;;;7.53;;
80681;SDS011;70045;40.200;44.582;2024-03-06T03:35:43;17.85;;;7.93;;
80681;SDS011;70045;40.200;44.582;2024-03-06T03:38:09;17.65;;;7.53;;
80681;SDS011;70045;40.200;44.582;2024-03-06T03:40:34;14.68;;;6.93;;
80681;SDS011;70045;40.200;44.582;2024-03-06T03:43:02;12.52;;;6.97;;
80681;SDS011;70045;40.200;44.582;2024-03-06T03:45:28;13.57;;;7.57;;
80681;SDS011;70045;40.200;44.582;2024-03-06T03:47:53;16.25;;;7.55;;
80681;SDS011;70045;40.200;44.582;2024-03-06T03:50:19;16.08;;;8.05;;
80681;SDS011;70045;40.200;44.582;2024-03-06T03:52:44;20.10;;;7.57;;
80681;SDS011;70045;40.200;44.582;2024-03-06T03:55:13;16.25;;;7.75;;
80681;SDS011;70045;40.200;44.582;2024-03-06T03:57:39;17.70;;;7.90;;
80681;SDS011;70045;40.200;44.582;2024-03-06T04:00:04;16.10;;;8.20;;
80681;SDS011;70045;40.200;44.582;2024-03-06T04:02:30;15.50;;;8.60;;
80681;SDS011;70045;40.200;44.582;2024-03-06T04:04:56;17.45;;;8.07;;
80681;SDS011;70045;40.200;44.582;2024-03-06T04:07:24;16.50;;;7.57;;
80681;SDS011;70045;40.200;44.582;2024-03-06T04:09:49;12.75;;;7.68;;
80681;SDS011;70045;40.200;44.582;2024-03-06T04:12:15;14.30;;;6.60;;
80681;SDS011;70045;40.200;44.582;2024-03-06T04:14:43;14.55;;;6.93;;
80681;SDS011;70045;40.200;44.582;2024-03-06T04:17:08;13.02;;;6.95;;
80681;SDS011;70045;40.200;44.582;2024-03-06T04:19:37;12.43;;;6.35;;
80681;SDS011;70045;40.200;44.582;2024-03-06T04:22:02;12.63;;;6.80;;
80681;SDS011;70045;40.200;44.582;2024-03-06T04:24:27;13.48;;;6.82;;
80681;SDS011;70045;40.200;44.582;2024-03-06T04:26:53;9.80;;;5.95;;
80681;SDS011;70045;40.200;44.582;2024-03-06T04:29:18;15.95;;;6.47;;
80681;SDS011;70045;40.200;44.582;2024-03-06T04:31:47;10.57;;;6.55;;
80681;SDS011;70045;40.200;44.582;2024-03-06T04:34:13;11.18;;;5.78;;
80681;SDS011;70045;40.200;44.582;2024-03-06T04:36:38;13.65;;;6.45;;
80681;SDS011;70045;40.200;44.582;2024-03-06T04:39:04;9.57;;;5.65;;
80681;SDS011;70045;40.200;44.582;2024-03-06T04:41:29;16.27;;;5.68;;
80681;SDS011;70045;40.200;44.582;2024-03-06T04:43:57;10.20;;;5.80;;
80681;SDS011;70045;40.200;44.582;2024-03-06T04:46:23;11.05;;;6.18;;
80681;SDS011;70045;40.200;44.582;2024-03-06T04:48:48;12.15;;;6.22;;
80681;SDS011;70045;40.200;44.582;2024-03-06T04:51:14;14.32;;;6.28;;
80681;SDS011;70045;40.200;44.582;2024-03-06T04:53:39;14.00;;;6.32;;
80681;SDS011;70045;40.200;44.582;2024-03-06T04:56:08;10.27;;;6.07;;
80681;SDS011;70045;40.200;44.582;2024-03-06T04:58:36;12.93;;;5.93;;
80681;SDS011;70045;40.200;44.582;2024-03-06T05:01:01;10.43;;;5.80;;
80681;SDS011;70045;40.200;44.582;2024-03-06T05:03:27;10.60;;;5.95;;
80681;SDS011;70045;40.200;44.582;2024-03-06T05:05:52;14.02;;;6.15;;
80681;SDS011;70045;40.200;44.582;2024-03-06T05:08:21;14.88;;;5.32;;
80681;SDS011;70045;40.200;44.582;2024-03-06T05:10:47;11.20;;;5.07;;
80681;SDS011;70045;40.200;44.582;2024-03-06T05:13:12;13.50;;;5.82;;
80681;SDS011;70045;40.200;44.582;2024-03-06T05:15:38;9.43;;;5.53;;
80681;SDS011;70045;40.200;44.582;2024-03-06T05:18:03;16.77;;;5.00;;
80681;SDS011;70045;40.200;44.582;2024-03-06T05:20:34;11.80;;;4.85;;
80681;SDS011;70045;40.200;44.582;2024-03-06T05:22:59;10.93;;;5.78;;
80681;SDS011;70045;40.200;44.582;2024-03-06T05:25:25;17.83;;;6.18;;
80681;SDS011;70045;40.200;44.582;2024-03-06T05:27:50;10.57;;;5.90;;
80681;SDS011;70045;40.200;44.582;2024-03-06T05:30:16;11.98;;;5.78;;
80681;SDS011;70045;40.200;44.582;2024-03-06T05:32:45;10.65;;;5.22;;
80681;SDS011;70045;40.200;44.582;2024-03-06T05:35:10;8.18;;;4.68;;
80681;SDS011;70045;40.200;44.582;2024-03-06T05:37:36;8.93;;;5.30;;
80681;SDS011;70045;40.200;44.582;2024-03-06T05:40:02;11.00;;;6.15;;
80681;SDS011;70045;40.200;44.582;2024-03-06T05:42:28;8.65;;;5.43;;
80681;SDS011;70045;40.200;44.582;2024-03-06T05:44:57;12.52;;;6.05;;
80681;SDS011;70045;40.200;44.582;2024-03-06T05:47:22;11.40;;;5.47;;
80681;SDS011;70045;40.200;44.582;2024-03-06T05:49:48;9.65;;;5.60;;
80681;SDS011;70045;40.200;44.582;2024-03-06T05:52:13;12.60;;;5.50;;
80681;SDS011;70045;40.200;44.582;2024-03-06T05:54:43;11.75;;;5.28;;
80681;SDS011;70045;40.200;44.582;2024-03-06T05:57:12;11.20;;;5.70;;
80681;SDS011;70045;40.200;44.582;2024-03-06T05:59:39;14.75;;;6.10;;
80681;SDS011;70045;40.200;44.582;2024-03-06T06:02:05;10.70;;;5.93;;
80681;SDS011;70045;40.200;44.582;2024-03-06T06:04:31;12.20;;;6.00;;
80681;SDS011;70045;40.200;44.582;2024-03-06T06:06:56;13.05;;;6.72;;
80681;SDS011;70045;40.200;44.582;2024-03-06T06:09:25;13.82;;;6.38;;
80681;SDS011;70045;40.200;44.582;2024-03-06T06:11:51;15.32;;;6.65;;
80681;SDS011;70045;40.200;44.582;2024-03-06T06:14:16;13.30;;;6.78;;
80681;SDS011;70045;40.200;44.582;2024-03-06T06:16:42;10.77;;;6.13;;
80681;SDS011;70045;40.200;44.582;2024-03-06T06:19:07;14.38;;;6.15;;
80681;SDS011;70045;40.200;44.582;2024-03-06T06:21:39;10.38;;;6.05;;
80681;SDS011;70045;40.200;44.582;2024-03-06T06:24:05;10.68;;;5.55;;
80681;SDS011;70045;40.200;44.582;2024-03-06T06:26:31;9.75;;;5.47;;
80681;SDS011;70045;40.200;44.582;2024-03-06T06:28:57;14.75;;;5.53;;
80681;SDS011;70045;40.200;44.582;2024-03-06T06:31:23;10.77;;;5.65;;
80681;SDS011;70045;40.200;44.582;2024-03-06T06:33:51;10.73;;;5.70;;
80681;SDS011;70045;40.200;44.582;2024-03-06T06:36:17;13.98;;;6.70;;
80681;SDS011;70045;40.200;44.582;2024-03-06T06:38:43;13.75;;;5.97;;
80681;SDS011;70045;40.200;44.582;2024-03-06T06:41:08;11.65;;;6.00;;
80681;SDS011;70045;40.200;44.582;2024-03-06T06:43:34;14.05;;;6.18;;
80681;SDS011;70045;40.200;44.582;2024-03-06T06:46:02;14.75;;;6.55;;
80681;SDS011;70045;40.200;44.582;2024-03-06T06:48:28;12.98;;;6.45;;
80681;SDS011;70045;40.200;44.582;2024-03-06T06:50:53;13.25;;;6.10;;
80681;SDS011;70045;40.200;44.582;2024-03-06T06:53:19;10.57;;;6.00;;
80681;SDS011;70045;40.200;44.582;2024-03-06T06:55:44;20.00;;;6.60;;
80681;SDS011;70045;40.200;44.582;2024-03-06T06:58:14;11.55;;;6.18;;
80681;SDS011;70045;40.200;44.582;2024-03-06T07:00:40;11.20;;;5.75;;
80681;SDS011;70045;40.200;44.582;2024-03-06T07:03:05;12.30;;;6.03;;
80681;SDS011;70045;40.200;44.582;2024-03-06T07:05:31;14.40;;;6.63;;
80681;SDS011;70045;40.200;44.582;2024-03-06T07:07:56;10.88;;;5.70;;
80681;SDS011;70045;40.200;44.582;2024-03-06T07:10:26;15.48;;;5.43;;
80681;SDS011;70045;40.200;44.582;2024-03-06T07:12:51;17.17;;;7.10;;
80681;SDS011;70045;40.200;44.582;2024-03-06T07:15:17;14.65;;;7.13;;
80681;SDS011;70045;40.200;44.582;2024-03-06T07:17:42;20.05;;;7.68;;
80681;SDS011;70045;40.200;44.582;2024-03-06T07:20:08;15.60;;;6.30;;
80681;SDS011;70045;40.200;44.582;2024-03-06T07:22:38;12.15;;;6.22;;
80681;SDS011;70045;40.200;44.582;2024-03-06T07:25:03;20.40;;;8.07;;
80681;SDS011;70045;40.200;44.582;2024-03-06T07:27:29;14.27;;;7.78;;
80681;SDS011;70045;40.200;44.582;2024-03-06T07:29:54;21.45;;;7.22;;
80681;SDS011;70045;40.200;44.582;2024-03-06T07:32:20;14.65;;;6.18;;
80681;SDS011;70045;40.200;44.582;2024-03-06T07:34:49;15.60;;;6.05;;
80681;SDS011;70045;40.200;44.582;2024-03-06T07:37:14;10.25;;;5.78;;
80681;SDS011;70045;40.200;44.582;2024-03-06T07:39:40;12.60;;;6.65;;
80681;SDS011;70045;40.200;44.582;2024-03-06T07:42:05;11.82;;;6.20;;
80681;SDS011;70045;40.200;44.582;2024-03-06T07:44:31;11.20;;;6.35;;
80681;SDS011;70045;40.200;44.582;2024-03-06T07:46:59;11.27;;;5.78;;
80681;SDS011;70045;40.200;44.582;2024-03-06T07:49:25;13.23;;;6.72;;
80681;SDS011;70045;40.200;44.582;2024-03-06T07:51:52;12.98;;;6.43;;
80681;SDS011;70045;40.200;44.582;2024-03-06T07:54:18;13.85;;;5.95;;
80681;SDS011;70045;40.200;44.582;2024-03-06T07:56:43;12.02;;;6.57;;
80681;SDS011;70045;40.200;44.582;2024-03-06T07:59:12;9.73;;;5.47;;
80681;SDS011;70045;40.200;44.582;2024-03-06T08:01:38;12.93;;;6.35;;
80681;SDS011;70045;40.200;44.582;2024-03-06T08:04:03;9.88;;;4.40;;
80681;SDS011;70045;40.200;44.582;2024-03-06T08:06:29;8.38;;;3.83;;
80681;SDS011;70045;40.200;44.582;2024-03-06T08:08:57;11.40;;;5.63;;
80681;SDS011;70045;40.200;44.582;2024-03-06T08:11:27;9.43;;;5.50;;
80681;SDS011;70045;40.200;44.582;2024-03-06T08:13:59;11.88;;;5.45;;
80681;SDS011;70045;40.200;44.582;2024-03-06T08:16:25;10.98;;;5.85;;
80681;SDS011;70045;40.200;44.582;2024-03-06T08:18:50;14.30;;;5.28;;
80681;SDS011;70045;40.200;44.582;2024-03-06T08:21:16;9.60;;;5.35;;
80681;SDS011;70045;40.200;44.582;2024-03-06T08:23:44;12.20;;;5.57;;
80681;SDS011;70045;40.200;44.582;2024-03-06T08:26:10;9.18;;;5.60;;
80681;SDS011;70045;40.200;44.582;2024-03-06T08:28:35;9.55;;;5.00;;
80681;SDS011;70045;40.200;44.582;2024-03-06T08:31:01;13.27;;;5.75;;
80681;SDS011;70045;40.200;44.582;2024-03-06T08:33:26;12.80;;;4.95;;
80681;SDS011;70045;40.200;44.582;2024-03-06T08:35:55;14.93;;;5.68;;
80681;SDS011;70045;40.200;44.582;2024-03-06T08:38:21;11.10;;;5.20;;
80681;SDS011;70045;40.200;44.582;2024-03-06T08:40:46;9.77;;;5.00;;
80681;SDS011;70045;40.200;44.582;2024-03-06T08:43:12;15.57;;;5.53;;
80681;SDS011;70045;40.200;44.582;2024-03-06T08:45:38;12.63;;;5.60;;
80681;SDS011;70045;40.200;44.582;2024-03-06T08:48:07;14.93;;;6.55;;
80681;SDS011;70045;40.200;44.582;2024-03-06T08:50:33;13.07;;;6.55;;
80681;SDS011;70045;40.200;44.582;2024-03-06T08:52:58;11.40;;;6.05;;
80681;SDS011;70045;40.200;44.582;2024-03-06T08:55:24;10.35;;;5.78;;
80681;SDS011;70045;40.200;44.582;2024-03-06T08:57:49;13.35;;;5.80;;
80681;SDS011;70045;40.200;44.582;2024-03-06T09:00:19;11.05;;;5.78;;
80681;SDS011;70045;40.200;44.582;2024-03-06T09:02:45;16.30;;;6.25;;
80681;SDS011;70045;40.200;44.582;2024-03-06T09:05:10;12.55;;;5.88;;
80681;SDS011;70045;40.200;44.582;2024-03-06T09:07:36;15.27;;;5.90;;
80681;SDS011;70045;40.200;44.582;2024-03-06T09:10:02;15.02;;;5.85;;
80681;SDS011;70045;40.200;44.582;2024-03-06T09:12:32;12.52;;;5.70;;
80681;SDS011;70045;40.200;44.582;2024-03-06T09:14:58;14.48;;;6.40;;
80681;SDS011;70045;40.200;44.582;2024-03-06T09:17:23;13.32;;;5.75;;
80681;SDS011;70045;40.200;44.582;2024-03-06T09:19:49;13.13;;;6.45;;
80681;SDS011;70045;40.200;44.582;2024-03-06T09:22:14;14.00;;;6.07;;
80681;SDS011;70045;40.200;44.582;2024-03-06T09:24:44;14.25;;;6.82;;
80681;SDS011;70045;40.200;44.582;2024-03-06T09:27:09;15.15;;;6.43;;
80681;SDS011;70045;40.200;44.582;2024-03-06T09:29:34;9.32;;;5.43;;
80681;SDS011;70045;40.200;44.582;2024-03-06T09:32:00;18.08;;;6.15;;
80681;SDS011;70045;40.200;44.582;2024-03-06T09:34:25;10.25;;;5.35;;
80681;SDS011;70045;40.200;44.582;2024-03-06T09:36:54;14.90;;;5.22;;
80681;SDS011;70045;40.200;44.582;2024-03-06T09:39:20;12.70;;;6.07;;
80681;SDS011;70045;40.200;44.582;2024-03-06T09:41:56;20.58;;;8.32;;
80681;SDS011;70045;40.200;44.582;2024-03-06T09:44:22;16.55;;;8.52;;
80681;SDS011;70045;40.200;44.582;2024-03-06T09:46:48;22.90;;;9.05;;
80681;SDS011;70045;40.200;44.582;2024-03-06T09:49:18;17.48;;;7.22;;
80681;SDS011;70045;40.200;44.582;2024-03-06T09:51:48;18.27;;;7.70;;
80681;SDS011;70045;40.200;44.582;2024-03-06T09:54:14;20.95;;;7.45;;
80681;SDS011;70045;40.200;44.582;2024-03-06T09:59:09;16.02;;;7.38;;
80681;SDS011;70045;40.200;44.582;2024-03-06T10:02:00;16.08;;;6.88;;
80681;SDS011;70045;40.200;44.582;2024-03-06T10:04:26;10.25;;;5.60;;
80681;SDS011;70045;40.200;44.582;2024-03-06T10:06:53;16.73;;;5.25;;
80681;SDS011;70045;40.200;44.582;2024-03-06T10:09:19;8.07;;;5.13;;
80681;SDS011;70045;40.200;44.582;2024-03-06T10:11:51;8.50;;;5.38;;
80681;SDS011;70045;40.200;44.582;2024-03-06T10:14:16;8.60;;;4.90;;
80681;SDS011;70045;40.200;44.582;2024-03-06T10:16:55;9.27;;;4.63;;
80681;SDS011;70045;40.200;44.582;2024-03-06T10:19:22;9.55;;;5.03;;
80681;SDS011;70045;40.200;44.582;2024-03-06T10:21:49;9.27;;;5.07;;
80681;SDS011;70045;40.200;44.582;2024-03-06T10:24:21;15.43;;;5.00;;
80681;SDS011;70045;40.200;44.582;2024-03-06T10:26:57;8.48;;;5.40;;
80681;SDS011;70045;40.200;44.582;2024-03-06T10:29:24;11.85;;;5.55;;
80681;SDS011;70045;40.200;44.582;2024-03-06T10:31:54;11.23;;;5.40;;
80681;SDS011;70045;40.200;44.582;2024-03-06T10:34:21;8.38;;;4.82;;
80681;SDS011;70045;40.200;44.582;2024-03-06T10:36:56;11.48;;;5.32;;
80681;SDS011;70045;40.200;44.582;2024-03-06T10:39:23;12.52;;;5.45;;
80681;SDS011;70045;40.200;44.582;2024-03-06T10:41:58;12.85;;;6.13;;
80681;SDS011;70045;40.200;44.582;2024-03-06T10:44:26;12.85;;;5.82;;
80681;SDS011;70045;40.200;44.582;2024-03-06T10:46:56;11.07;;;6.30;;
80681;SDS011;70045;40.200;44.582;2024-03-06T10:49:24;9.77;;;5.57;;
80681;SDS011;70045;40.200;44.582;2024-03-06T10:51:50;9.57;;;5.30;;
80681;SDS011;70045;40.200;44.582;2024-03-06T10:54:16;11.68;;;5.70;;
80681;SDS011;70045;40.200;44.582;2024-03-06T10:56:48;11.32;;;5.78;;
80681;SDS011;70045;40.200;44.582;2024-03-06T10:59:13;18.52;;;5.70;;
80681;SDS011;70045;40.200;44.582;2024-03-06T11:01:39;19.10;;;6.38;;
80681;SDS011;70045;40.200;44.582;2024-03-06T11:04:05;15.18;;;5.55;;
80681;SDS011;70045;40.200;44.582;2024-03-06T11:06:31;17.83;;;5.43;;
80681;SDS011;70045;40.200;44.582;2024-03-06T11:09:01;9.70;;;5.25;;
80681;SDS011;70045;40.200;44.582;2024-03-06T11:11:27;15.95;;;5.63;;
80681;SDS011;70045;40.200;44.582;2024-03-06T11:14:00;10.68;;;4.97;;
80681;SDS011;70045;40.200;44.582;2024-03-06T11:16:29;17.45;;;5.78;;
80681;SDS011;70045;40.200;44.582;2024-03-06T11:19:07;10.07;;;4.72;;
80681;SDS011;70045;40.200;44.582;2024-03-06T11:21:47;9.55;;;4.60;;
80681;SDS011;70045;40.200;44.582;2024-03-06T11:24:24;8.63;;;4.53;;
80681;SDS011;70045;40.200;44.582;2024-03-06T11:32:58;11.07;;;4.20;;
80681;SDS011;70045;40.200;44.582;2024-03-06T11:35:24;8.38;;;4.13;;
80681;SDS011;70045;40.200;44.582;2024-03-06T11:37:50;15.52;;;4.00;;
80681;SDS011;70045;40.200;44.582;2024-03-06T11:40:23;12.80;;;4.05;;
80681;SDS011;70045;40.200;44.582;2024-03-06T11:42:49;9.02;;;4.57;;
80681;SDS011;70045;40.200;44.582;2024-03-06T11:45:18;9.77;;;3.95;;
80681;SDS011;70045;40.200;44.582;2024-03-06T11:48:00;10.23;;;4.10;;
80681;SDS011;70045;40.200;44.582;2024-03-06T11:52:55;17.52;;;4.95;;
80681;SDS011;70045;40.200;44.582;2024-03-06T11:55:20;12.23;;;4.70;;
80681;SDS011;70045;40.200;44.582;2024-03-06T11:57:46;9.05;;;4.35;;
80681;SDS011;70045;40.200;44.582;2024-03-06T12:00:13;15.43;;;4.90;;
80681;SDS011;70045;40.200;44.582;2024-03-06T12:02:42;12.20;;;5.28;;
80681;SDS011;70045;40.200;44.582;2024-03-06T12:05:09;14.55;;;4.53;;
80681;SDS011;70045;40.200;44.582;2024-03-06T12:07:44;10.98;;;3.80;;
80681;SDS011;70045;40.200;44.582;2024-03-06T12:10:12;12.57;;;4.20;;
80681;SDS011;70045;40.200;44.582;2024-03-06T12:12:38;7.28;;;3.40;;
80681;SDS011;70045;40.200;44.582;2024-03-06T12:15:17;8.52;;;3.30;;
80681;SDS011;70045;40.200;44.582;2024-03-06T12:17:47;7.40;;;3.72;;
80681;SDS011;70045;40.200;44.582;2024-03-06T12:20:15;8.43;;;3.90;;
80681;SDS011;70045;40.200;44.582;2024-03-06T12:22:44;7.45;;;3.42;;
80681;SDS011;70045;40.200;44.582;2024-03-06T12:25:23;7.95;;;3.65;;
80681;SDS011;70045;40.200;44.582;2024-03-06T12:27:50;6.90;;;3.28;;
80681;SDS011;70045;40.200;44.582;2024-03-06T12:30:22;8.98;;;3.85;;
80681;SDS011;70045;40.200;44.582;2024-03-06T12:32:57;9.65;;;3.80;;
80681;SDS011;70045;40.200;44.582;2024-03-06T12:35:26;7.53;;;3.72;;
80681;SDS011;70045;40.200;44.582;2024-03-06T12:37:52;11.63;;;4.38;;
80681;SDS011;70045;40.200;44.582;2024-03-06T12:40:18;7.70;;;4.05;;
80681;SDS011;70045;40.200;44.582;2024-03-06T12:42:44;11.02;;;3.80;;
80681;SDS011;70045;40.200;44.582;2024-03-06T12:45:10;8.85;;;3.63;;
80681;SDS011;70045;40.200;44.582;2024-03-06T12:47:43;10.15;;;3.25;;
80681;SDS011;70045;40.200;44.582;2024-03-06T12:50:09;9.75;;;3.70;;
80681;SDS011;70045;40.200;44.582;2024-03-06T12:52:35;9.25;;;3.97;;
80681;SDS011;70045;40.200;44.582;2024-03-06T12:55:00;8.30;;;3.92;;
80681;SDS011;70045;40.200;44.582;2024-03-06T12:57:26;12.25;;;4.00;;
80681;SDS011;70045;40.200;44.582;2024-03-06T12:59:55;6.88;;;3.47;;
80681;SDS011;70045;40.200;44.582;2024-03-06T13:02:20;7.05;;;3.60;;
80681;SDS011;70045;40.200;44.582;2024-03-06T13:04:46;6.32;;;3.40;;
80681;SDS011;70045;40.200;44.582;2024-03-06T13:07:11;6.65;;;4.10;;
80681;SDS011;70045;40.200;44.582;2024-03-06T13:09:37;8.57;;;4.30;;
80681;SDS011;70045;40.200;44.582;2024-03-06T13:12:06;6.93;;;3.72;;
80681;SDS011;70045;40.200;44.582;2024-03-06T13:14:32;7.18;;;3.70;;
80681;SDS011;70045;40.200;44.582;2024-03-06T13:16:58;8.57;;;4.10;;
80681;SDS011;70045;40.200;44.582;2024-03-06T13:19:25;13.20;;;5.82;;
80681;SDS011;70045;40.200;44.582;2024-03-06T13:21:51;10.38;;;4.75;;
80681;SDS011;70045;40.200;44.582;2024-03-06T13:24:22;7.93;;;4.35;;
80681;SDS011;70045;40.200;44.582;2024-03-06T13:26:47;14.75;;;4.20;;
80681;SDS011;70045;40.200;44.582;2024-03-06T13:29:13;8.25;;;4.32;;
80681;SDS011;70045;40.200;44.582;2024-03-06T13:31:39;7.70;;;3.97;;
80681;SDS011;70045;40.200;44.582;2024-03-06T13:34:07;7.30;;;4.35;;
80681;SDS011;70045;40.200;44.582;2024-03-06T13:36:35;11.65;;;4.00;;
80681;SDS011;70045;40.200;44.582;2024-03-06T13:39:01;6.90;;;3.97;;
80681;SDS011;70045;40.200;44.582;2024-03-06T13:41:26;8.02;;;4.40;;
80681;SDS011;70045;40.200;44.582;2024-03-06T13:43:52;6.88;;;4.20;;
80681;SDS011;70045;40.200;44.582;2024-03-06T13:46:17;6.82;;;4.00;;
80681;SDS011;70045;40.200;44.582;2024-03-06T13:48:46;8.23;;;4.13;;
80681;SDS011;70045;40.200;44.582;2024-03-06T13:51:12;13.88;;;4.63;;
80681;SDS011;70045;40.200;44.582;2024-03-06T13:53:37;11.10;;;4.75;;
80681;SDS011;70045;40.200;44.582;2024-03-06T13:56:03;7.75;;;4.20;;
80681;SDS011;70045;40.200;44.582;2024-03-06T13:58:29;9.95;;;4.13;;
80681;SDS011;70045;40.200;44.582;2024-03-06T14:01:00;7.75;;;4.28;;
80681;SDS011;70045;40.200;44.582;2024-03-06T14:03:26;9.20;;;3.70;;
80681;SDS011;70045;40.200;44.582;2024-03-06T14:05:51;12.15;;;4.95;;
80681;SDS011;70045;40.200;44.582;2024-03-06T14:08:17;10.27;;;4.43;;
80681;SDS011;70045;40.200;44.582;2024-03-06T14:10:42;15.05;;;4.95;;
80681;SDS011;70045;40.200;44.582;2024-03-06T14:13:10;13.85;;;5.30;;
80681;SDS011;70045;40.200;44.582;2024-03-06T14:15:36;9.65;;;5.22;;
80681;SDS011;70045;40.200;44.582;2024-03-06T14:18:01;12.27;;;5.90;;
80681;SDS011;70045;40.200;44.582;2024-03-06T14:20:27;12.30;;;5.50;;
80681;SDS011;70045;40.200;44.582;2024-03-06T14:22:53;11.18;;;5.40;;
80681;SDS011;70045;40.200;44.582;2024-03-06T14:25:22;18.10;;;5.65;;
80681;SDS011;70045;40.200;44.582;2024-03-06T14:27:48;13.30;;;5.50;;
80681;SDS011;70045;40.200;44.582;2024-03-06T14:30:14;9.50;;;5.60;;